sensor_id;sensor_type;location;lat;lon;timestamp;P1;durP1;ratioP1;P2;durP2;ratioP2
15358;SDS011;7779;49.596;11.070;2023-11-21T00:01:36;1.37;;;0.60;;
15358;SDS011;7779;49.596;11.070;2023-11-21T00:04:03;1.30;;;0.60;;
15358;SDS011;7779;49.596;11.070;2023-11-21T00:06:28;1.27;;;0.70;;
15358;SDS011;7779;49.596;11.070;2023-11-21T00:08:55;2.37;;;0.70;;
15358;SDS011;7779;49.596;11.070;2023-11-21T00:11:21;1.57;;;0.40;;
15358;SDS011;7779;49.596;11.070;2023-11-21T00:13:47;0.57;;;0.50;;
15358;SDS011;7779;49.596;11.070;2023-11-21T00:16:13;0.60;;;0.50;;
15358;SDS011;7779;49.596;11.070;2023-11-21T00:18:38;1.30;;;0.30;;
15358;SDS011;7779;49.596;11.070;2023-11-21T00:21:04;3.27;;;0.50;;
15358;SDS011;7779;49.596;11.070;2023-11-21T00:23:30;0.80;;;0.43;;
15358;SDS011;7779;49.596;11.070;2023-11-21T00:25:56;2.10;;;0.43;;
15358;SDS011;7779;49.596;11.070;2023-11-21T00:28:22;0.70;;;0.40;;
15358;SDS011;7779;49.596;11.070;2023-11-21T00:30:47;1.03;;;0.43;;
15358;SDS011;7779;49.596;11.070;2023-11-21T00:33:13;1.00;;;0.30;;
15358;SDS011;7779;49.596;11.070;2023-11-21T00:35:39;0.30;;;0.30;;
15358;SDS011;7779;49.596;11.070;2023-11-21T00:38:04;0.20;;;0.20;;
15358;SDS011;7779;49.596;11.070;2023-11-21T00:40:31;0.43;;;0.40;;
15358;SDS011;7779;49.596;11.070;2023-11-21T00:42:58;1.23;;;0.40;;
15358;SDS011;7779;49.596;11.070;2023-11-21T00:45:23;0.50;;;0.30;;
15358;SDS011;7779;49.596;11.070;2023-11-21T00:47:50;1.10;;;0.40;;
15358;SDS011;7779;49.596;11.070;2023-11-21T00:50:15;1.53;;;0.40;;
15358;SDS011;7779;49.596;11.070;2023-11-21T00:52:41;1.57;;;0.40;;
15358;SDS011;7779;49.596;11.070;2023-11-21T00:55:07;1.03;;;0.40;;
15358;SDS011;7779;49.596;11.070;2023-11-21T00:57:34;2.37;;;0.60;;
15358;SDS011;7779;49.596;11.070;2023-11-21T01:00:00;0.43;;;0.33;;
15358;SDS011;7779;49.596;11.070;2023-11-21T01:02:26;0.30;;;0.30;;
15358;SDS011;7779;49.596;11.070;2023-11-21T01:04:52;0.77;;;0.30;;
15358;SDS011;7779;49.596;11.070;2023-11-21T01:07:18;2.47;;;0.43;;
15358;SDS011;7779;49.596;11.070;2023-11-21T01:09:45;1.27;;;0.40;;
15358;SDS011;7779;49.596;11.070;2023-11-21T01:12:11;1.00;;;0.40;;
15358;SDS011;7779;49.596;11.070;2023-11-21T01:14:37;0.80;;;0.50;;
15358;SDS011;7779;49.596;11.070;2023-11-21T01:17:02;1.03;;;0.40;;
15358;SDS011;7779;49.596;11.070;2023-11-21T01:19:30;0.67;;;0.50;;
15358;SDS011;7779;49.596;11.070;2023-11-21T01:21:56;1.27;;;0.40;;
15358;SDS011;7779;49.596;11.070;2023-11-21T01:24:23;1.37;;;0.40;;
15358;SDS011;7779;49.596;11.070;2023-11-21T01:26:49;0.23;;;0.20;;
15358;SDS011;7779;49.596;11.070;2023-11-21T01:29:15;1.03;;;0.40;;
15358;SDS011;7779;49.596;11.070;2023-11-21T01:31:40;0.50;;;0.30;;
15358;SDS011;7779;49.596;11.070;2023-11-21T01:34:06;1.23;;;0.40;;
15358;SDS011;7779;49.596;11.070;2023-11-21T01:36:32;0.60;;;0.40;;
15358;SDS011;7779;49.596;11.070;2023-11-21T01:38:58;1.27;;;0.50;;
15358;SDS011;7779;49.596;11.070;2023-11-21T01:41:28;2.13;;;0.50;;
15358;SDS011;7779;49.596;11.070;2023-11-21T01:43:54;0.67;;;0.37;;
15358;SDS011;7779;49.596;11.070;2023-11-21T01:46:20;0.60;;;0.30;;
15358;SDS011;7779;49.596;11.070;2023-11-21T01:48:48;2.37;;;0.60;;
15358;SDS011;7779;49.596;11.070;2023-11-21T01:51:14;1.57;;;0.70;;
15358;SDS011;7779;49.596;11.070;2023-11-21T01:53:41;1.47;;;0.50;;
15358;SDS011;7779;49.596;11.070;2023-11-21T01:56:08;1.17;;;0.60;;
15358;SDS011;7779;49.596;11.070;2023-11-21T01:58:35;1.03;;;0.40;;
15358;SDS011;7779;49.596;11.070;2023-11-21T02:01:01;0.90;;;0.50;;
15358;SDS011;7779;49.596;11.070;2023-11-21T02:03:27;1.43;;;0.37;;
15358;SDS011;7779;49.596;11.070;2023-11-21T02:05:53;1.13;;;0.63;;
15358;SDS011;7779;49.596;11.070;2023-11-21T02:08:19;1.00;;;0.50;;
15358;SDS011;7779;49.596;11.070;2023-11-21T02:10:45;1.73;;;0.70;;
15358;SDS011;7779;49.596;11.070;2023-11-21T02:13:11;1.53;;;0.60;;
15358;SDS011;7779;49.596;11.070;2023-11-21T02:15:37;1.20;;;0.60;;
15358;SDS011;7779;49.596;11.070;2023-11-21T02:18:03;0.47;;;0.30;;
15358;SDS011;7779;49.596;11.070;2023-11-21T02:20:31;1.37;;;0.63;;
15358;SDS011;7779;49.596;11.070;2023-11-21T02:23:00;0.97;;;0.50;;
15358;SDS011;7779;49.596;11.070;2023-11-21T02:27:54;1.50;;;0.80;;
15358;SDS011;7779;49.596;11.070;2023-11-21T02:30:21;1.57;;;0.60;;
15358;SDS011;7779;49.596;11.070;2023-11-21T02:32:51;1.00;;;0.60;;
15358;SDS011;7779;49.596;11.070;2023-11-21T02:35:22;2.43;;;0.70;;
15358;SDS011;7779;49.596;11.070;2023-11-21T02:37:51;2.27;;;0.70;;
15358;SDS011;7779;49.596;11.070;2023-11-21T02:40:17;1.50;;;0.67;;
15358;SDS011;7779;49.596;11.070;2023-11-21T02:42:45;1.50;;;0.70;;
15358;SDS011;7779;49.596;11.070;2023-11-21T02:45:21;2.73;;;0.70;;
15358;SDS011;7779;49.596;11.070;2023-11-21T02:47:47;1.00;;;0.63;;
15358;SDS011;7779;49.596;11.070;2023-11-21T02:50:14;2.30;;;0.70;;
15358;SDS011;7779;49.596;11.070;2023-11-21T02:52:40;0.83;;;0.70;;
15358;SDS011;7779;49.596;11.070;2023-11-21T02:55:06;1.03;;;0.70;;
15358;SDS011;7779;49.596;11.070;2023-11-21T02:57:35;1.57;;;0.80;;
15358;SDS011;7779;49.596;11.070;2023-11-21T03:00:01;1.63;;;0.83;;
15358;SDS011;7779;49.596;11.070;2023-11-21T03:02:27;2.70;;;0.97;;
15358;SDS011;7779;49.596;11.070;2023-11-21T03:04:53;1.80;;;0.77;;
15358;SDS011;7779;49.596;11.070;2023-11-21T03:07:19;1.03;;;0.93;;
15358;SDS011;7779;49.596;11.070;2023-11-21T03:09:45;2.43;;;0.80;;
15358;SDS011;7779;49.596;11.070;2023-11-21T03:12:11;3.70;;;0.83;;
15358;SDS011;7779;49.596;11.070;2023-11-21T03:14:37;1.27;;;0.90;;
15358;SDS011;7779;49.596;11.070;2023-11-21T03:17:04;2.63;;;0.90;;
15358;SDS011;7779;49.596;11.070;2023-11-21T03:19:30;1.33;;;0.80;;
15358;SDS011;7779;49.596;11.070;2023-11-21T03:21:56;0.90;;;0.83;;
15358;SDS011;7779;49.596;11.070;2023-11-21T03:24:22;2.17;;;1.10;;
15358;SDS011;7779;49.596;11.070;2023-11-21T03:26:48;1.17;;;0.70;;
15358;SDS011;7779;49.596;11.070;2023-11-21T03:29:14;2.00;;;0.87;;
15358;SDS011;7779;49.596;11.070;2023-11-21T03:31:40;1.20;;;0.80;;
15358;SDS011;7779;49.596;11.070;2023-11-21T03:34:06;1.10;;;0.80;;
15358;SDS011;7779;49.596;11.070;2023-11-21T03:36:34;1.73;;;0.80;;
15358;SDS011;7779;49.596;11.070;2023-11-21T03:39:01;2.37;;;0.70;;
15358;SDS011;7779;49.596;11.070;2023-11-21T03:41:27;1.53;;;0.80;;
15358;SDS011;7779;49.596;11.070;2023-11-21T03:43:53;1.47;;;0.90;;
15358;SDS011;7779;49.596;11.070;2023-11-21T03:46:19;1.10;;;0.70;;
15358;SDS011;7779;49.596;11.070;2023-11-21T03:48:44;1.30;;;0.70;;
15358;SDS011;7779;49.596;11.070;2023-11-21T03:51:10;2.03;;;0.80;;
15358;SDS011;7779;49.596;11.070;2023-11-21T03:53:36;1.20;;;0.80;;
15358;SDS011;7779;49.596;11.070;2023-11-21T03:56:02;2.17;;;1.00;;
15358;SDS011;7779;49.596;11.070;2023-11-21T03:58:29;1.20;;;0.70;;
15358;SDS011;7779;49.596;11.070;2023-11-21T04:00:54;0.70;;;0.53;;
15358;SDS011;7779;49.596;11.070;2023-11-21T04:03:20;1.20;;;0.80;;
15358;SDS011;7779;49.596;11.070;2023-11-21T04:05:46;3.83;;;1.20;;
15358;SDS011;7779;49.596;11.070;2023-11-21T04:08:12;0.80;;;0.80;;
15358;SDS011;7779;49.596;11.070;2023-11-21T04:10:38;1.30;;;0.80;;
15358;SDS011;7779;49.596;11.070;2023-11-21T04:13:04;1.80;;;0.90;;
15358;SDS011;7779;49.596;11.070;2023-11-21T04:15:31;2.43;;;0.87;;
15358;SDS011;7779;49.596;11.070;2023-11-21T04:17:57;1.57;;;0.90;;
15358;SDS011;7779;49.596;11.070;2023-11-21T04:20:23;1.73;;;0.90;;
15358;SDS011;7779;49.596;11.070;2023-11-21T04:22:50;2.00;;;0.70;;
15358;SDS011;7779;49.596;11.070;2023-11-21T04:25:16;1.30;;;0.80;;
15358;SDS011;7779;49.596;11.070;2023-11-21T04:27:42;2.50;;;0.90;;
15358;SDS011;7779;49.596;11.070;2023-11-21T04:30:10;1.30;;;0.70;;
15358;SDS011;7779;49.596;11.070;2023-11-21T04:32:38;1.63;;;0.70;;
15358;SDS011;7779;49.596;11.070;2023-11-21T04:35:04;2.47;;;0.83;;
15358;SDS011;7779;49.596;11.070;2023-11-21T04:37:31;1.20;;;0.87;;
15358;SDS011;7779;49.596;11.070;2023-11-21T04:39:57;1.80;;;0.80;;
15358;SDS011;7779;49.596;11.070;2023-11-21T04:42:22;1.00;;;0.83;;
15358;SDS011;7779;49.596;11.070;2023-11-21T04:44:48;1.33;;;0.90;;
15358;SDS011;7779;49.596;11.070;2023-11-21T04:47:15;3.23;;;0.87;;
15358;SDS011;7779;49.596;11.070;2023-11-21T04:49:41;1.77;;;0.90;;
15358;SDS011;7779;49.596;11.070;2023-11-21T04:52:08;1.83;;;1.00;;
15358;SDS011;7779;49.596;11.070;2023-11-21T04:54:35;2.20;;;1.00;;
15358;SDS011;7779;49.596;11.070;2023-11-21T04:57:01;1.10;;;1.00;;
15358;SDS011;7779;49.596;11.070;2023-11-21T04:59:26;1.60;;;0.93;;
15358;SDS011;7779;49.596;11.070;2023-11-21T05:01:53;1.47;;;0.90;;
15358;SDS011;7779;49.596;11.070;2023-11-21T05:04:19;1.07;;;0.90;;
15358;SDS011;7779;49.596;11.070;2023-11-21T05:06:47;1.47;;;1.00;;
15358;SDS011;7779;49.596;11.070;2023-11-21T05:09:13;1.20;;;0.97;;
15358;SDS011;7779;49.596;11.070;2023-11-21T05:11:40;4.47;;;1.00;;
15358;SDS011;7779;49.596;11.070;2023-11-21T05:14:06;1.23;;;1.13;;
15358;SDS011;7779;49.596;11.070;2023-11-21T05:16:33;1.50;;;1.03;;
15358;SDS011;7779;49.596;11.070;2023-11-21T05:19:00;1.50;;;1.10;;
15358;SDS011;7779;49.596;11.070;2023-11-21T05:21:26;2.17;;;1.10;;
15358;SDS011;7779;49.596;11.070;2023-11-21T05:23:54;3.97;;;1.20;;
15358;SDS011;7779;49.596;11.070;2023-11-21T05:26:20;1.30;;;1.20;;
15358;SDS011;7779;49.596;11.070;2023-11-21T05:28:46;1.33;;;1.23;;
15358;SDS011;7779;49.596;11.070;2023-11-21T05:31:11;1.33;;;1.23;;
15358;SDS011;7779;49.596;11.070;2023-11-21T05:33:37;1.80;;;1.10;;
15358;SDS011;7779;49.596;11.070;2023-11-21T05:36:03;3.07;;;1.27;;
15358;SDS011;7779;49.596;11.070;2023-11-21T05:38:29;1.70;;;1.27;;
15358;SDS011;7779;49.596;11.070;2023-11-21T05:40:55;2.60;;;1.30;;
15358;SDS011;7779;49.596;11.070;2023-11-21T05:43:20;1.17;;;1.00;;
15358;SDS011;7779;49.596;11.070;2023-11-21T05:45:46;5.90;;;1.23;;
15358;SDS011;7779;49.596;11.070;2023-11-21T05:48:12;1.60;;;1.10;;
15358;SDS011;7779;49.596;11.070;2023-11-21T05:50:37;1.07;;;0.80;;
15358;SDS011;7779;49.596;11.070;2023-11-21T05:53:03;2.83;;;1.20;;
15358;SDS011;7779;49.596;11.070;2023-11-21T05:55:29;2.50;;;1.03;;
15358;SDS011;7779;49.596;11.070;2023-11-21T05:57:55;3.27;;;1.20;;
15358;SDS011;7779;49.596;11.070;2023-11-21T06:00:20;1.37;;;1.00;;
15358;SDS011;7779;49.596;11.070;2023-11-21T06:02:51;1.97;;;1.17;;
15358;SDS011;7779;49.596;11.070;2023-11-21T06:05:18;2.03;;;1.30;;
15358;SDS011;7779;49.596;11.070;2023-11-21T06:07:51;1.53;;;1.30;;
15358;SDS011;7779;49.596;11.070;2023-11-21T06:10:20;2.57;;;1.40;;
15358;SDS011;7779;49.596;11.070;2023-11-21T06:12:47;2.90;;;1.33;;
15358;SDS011;7779;49.596;11.070;2023-11-21T06:15:13;1.33;;;1.23;;
15358;SDS011;7779;49.596;11.070;2023-11-21T06:17:39;1.70;;;1.50;;
15358;SDS011;7779;49.596;11.070;2023-11-21T06:20:07;2.63;;;1.70;;
15358;SDS011;7779;49.596;11.070;2023-11-21T06:22:39;2.93;;;1.50;;
15358;SDS011;7779;49.596;11.070;2023-11-21T06:25:08;3.13;;;1.80;;
15358;SDS011;7779;49.596;11.070;2023-11-21T06:27:39;2.37;;;1.80;;
15358;SDS011;7779;49.596;11.070;2023-11-21T06:30:09;3.37;;;1.70;;
15358;SDS011;7779;49.596;11.070;2023-11-21T06:32:37;2.40;;;1.70;;
15358;SDS011;7779;49.596;11.070;2023-11-21T06:35:05;2.03;;;1.60;;
15358;SDS011;7779;49.596;11.070;2023-11-21T06:37:31;3.90;;;1.90;;
15358;SDS011;7779;49.596;11.070;2023-11-21T06:39:58;3.97;;;2.07;;
15358;SDS011;7779;49.596;11.070;2023-11-21T06:42:25;3.57;;;2.03;;
15358;SDS011;7779;49.596;11.070;2023-11-21T06:44:52;3.77;;;1.93;;
15358;SDS011;7779;49.596;11.070;2023-11-21T06:47:19;2.63;;;2.00;;
15358;SDS011;7779;49.596;11.070;2023-11-21T06:49:45;4.67;;;2.50;;
15358;SDS011;7779;49.596;11.070;2023-11-21T06:52:14;3.00;;;2.17;;
15358;SDS011;7779;49.596;11.070;2023-11-21T06:54:40;2.10;;;1.90;;
15358;SDS011;7779;49.596;11.070;2023-11-21T06:57:05;3.50;;;2.13;;
15358;SDS011;7779;49.596;11.070;2023-11-21T06:59:31;2.87;;;2.10;;
15358;SDS011;7779;49.596;11.070;2023-11-21T07:01:57;2.00;;;1.87;;
15358;SDS011;7779;49.596;11.070;2023-11-21T07:04:23;2.70;;;2.10;;
15358;SDS011;7779;49.596;11.070;2023-11-21T07:06:50;2.43;;;2.23;;
15358;SDS011;7779;49.596;11.070;2023-11-21T07:09:18;4.43;;;2.57;;
15358;SDS011;7779;49.596;11.070;2023-11-21T07:11:47;3.17;;;2.60;;
15358;SDS011;7779;49.596;11.070;2023-11-21T07:14:14;3.33;;;2.77;;
15358;SDS011;7779;49.596;11.070;2023-11-21T07:16:41;3.03;;;2.73;;
15358;SDS011;7779;49.596;11.070;2023-11-21T07:19:06;3.37;;;2.23;;
15358;SDS011;7779;49.596;11.070;2023-11-21T07:21:33;3.90;;;2.30;;
15358;SDS011;7779;49.596;11.070;2023-11-21T07:24:01;4.17;;;2.40;;
15358;SDS011;7779;49.596;11.070;2023-11-21T07:26:28;2.27;;;1.90;;
15358;SDS011;7779;49.596;11.070;2023-11-21T07:28:54;2.70;;;2.20;;
15358;SDS011;7779;49.596;11.070;2023-11-21T07:31:21;2.17;;;1.90;;
15358;SDS011;7779;49.596;11.070;2023-11-21T07:33:47;3.00;;;2.37;;
15358;SDS011;7779;49.596;11.070;2023-11-21T07:36:14;4.37;;;3.13;;
15358;SDS011;7779;49.596;11.070;2023-11-21T07:38:41;3.87;;;2.73;;
15358;SDS011;7779;49.596;11.070;2023-11-21T07:41:08;6.00;;;3.20;;
15358;SDS011;7779;49.596;11.070;2023-11-21T07:43:35;5.63;;;3.80;;
15358;SDS011;7779;49.596;11.070;2023-11-21T07:46:01;4.63;;;3.13;;
15358;SDS011;7779;49.596;11.070;2023-11-21T07:48:29;5.07;;;3.00;;
15358;SDS011;7779;49.596;11.070;2023-11-21T07:50:56;5.50;;;3.60;;
15358;SDS011;7779;49.596;11.070;2023-11-21T07:53:25;4.43;;;2.90;;
15358;SDS011;7779;49.596;11.070;2023-11-21T07:55:54;6.60;;;3.40;;
15358;SDS011;7779;49.596;11.070;2023-11-21T07:58:20;4.97;;;2.53;;
15358;SDS011;7779;49.596;11.070;2023-11-21T08:00:46;3.60;;;2.60;;
15358;SDS011;7779;49.596;11.070;2023-11-21T08:03:13;3.10;;;2.60;;
15358;SDS011;7779;49.596;11.070;2023-11-21T08:05:39;2.23;;;2.03;;
15358;SDS011;7779;49.596;11.070;2023-11-21T08:08:05;3.20;;;2.10;;
15358;SDS011;7779;49.596;11.070;2023-11-21T08:10:31;2.37;;;1.90;;
15358;SDS011;7779;49.596;11.070;2023-11-21T08:12:57;3.10;;;2.10;;
15358;SDS011;7779;49.596;11.070;2023-11-21T08:15:23;3.30;;;2.30;;
15358;SDS011;7779;49.596;11.070;2023-11-21T08:17:49;3.10;;;2.10;;
15358;SDS011;7779;49.596;11.070;2023-11-21T08:20:14;3.13;;;1.80;;
15358;SDS011;7779;49.596;11.070;2023-11-21T08:22:41;2.67;;;1.73;;
15358;SDS011;7779;49.596;11.070;2023-11-21T08:25:08;2.83;;;2.10;;
15358;SDS011;7779;49.596;11.070;2023-11-21T08:27:34;1.97;;;1.63;;
15358;SDS011;7779;49.596;11.070;2023-11-21T08:30:05;3.30;;;2.00;;
15358;SDS011;7779;49.596;11.070;2023-11-21T08:32:32;3.43;;;1.80;;
15358;SDS011;7779;49.596;11.070;2023-11-21T08:35:01;2.20;;;1.83;;
15358;SDS011;7779;49.596;11.070;2023-11-21T08:37:26;2.53;;;2.00;;
15358;SDS011;7779;49.596;11.070;2023-11-21T08:39:55;4.23;;;2.30;;
15358;SDS011;7779;49.596;11.070;2023-11-21T08:42:24;4.30;;;2.43;;
15358;SDS011;7779;49.596;11.070;2023-11-21T08:44:50;2.70;;;2.20;;
15358;SDS011;7779;49.596;11.070;2023-11-21T08:47:16;4.37;;;2.20;;
15358;SDS011;7779;49.596;11.070;2023-11-21T08:49:41;2.23;;;2.03;;
15358;SDS011;7779;49.596;11.070;2023-11-21T08:52:07;3.03;;;2.30;;
15358;SDS011;7779;49.596;11.070;2023-11-21T08:54:33;5.73;;;2.63;;
15358;SDS011;7779;49.596;11.070;2023-11-21T08:56:59;2.90;;;2.47;;
15358;SDS011;7779;49.596;11.070;2023-11-21T08:59:25;2.70;;;2.33;;
15358;SDS011;7779;49.596;11.070;2023-11-21T09:01:51;4.03;;;2.50;;
15358;SDS011;7779;49.596;11.070;2023-11-21T09:04:17;4.20;;;2.13;;
15358;SDS011;7779;49.596;11.070;2023-11-21T09:06:43;3.17;;;2.83;;
15358;SDS011;7779;49.596;11.070;2023-11-21T09:09:09;2.50;;;2.30;;
15358;SDS011;7779;49.596;11.070;2023-11-21T09:11:35;3.77;;;2.80;;
15358;SDS011;7779;49.596;11.070;2023-11-21T09:14:02;2.70;;;2.50;;
15358;SDS011;7779;49.596;11.070;2023-11-21T09:16:28;3.70;;;2.73;;
15358;SDS011;7779;49.596;11.070;2023-11-21T09:18:55;4.43;;;2.57;;
15358;SDS011;7779;49.596;11.070;2023-11-21T09:21:20;3.60;;;2.70;;
15358;SDS011;7779;49.596;11.070;2023-11-21T09:23:46;3.10;;;2.67;;
15358;SDS011;7779;49.596;11.070;2023-11-21T09:26:13;4.30;;;3.00;;
15358;SDS011;7779;49.596;11.070;2023-11-21T09:28:41;3.80;;;2.50;;
15358;SDS011;7779;49.596;11.070;2023-11-21T09:31:12;4.07;;;2.93;;
15358;SDS011;7779;49.596;11.070;2023-11-21T09:33:41;3.93;;;2.90;;
15358;SDS011;7779;49.596;11.070;2023-11-21T09:36:12;5.17;;;3.30;;
15358;SDS011;7779;49.596;11.070;2023-11-21T09:38:41;4.33;;;3.70;;
15358;SDS011;7779;49.596;11.070;2023-11-21T09:41:09;4.80;;;3.50;;
15358;SDS011;7779;49.596;11.070;2023-11-21T09:43:50;4.60;;;3.80;;
15358;SDS011;7779;49.596;11.070;2023-11-21T09:46:21;3.80;;;3.40;;
15358;SDS011;7779;49.596;11.070;2023-11-21T09:48:53;3.90;;;3.30;;
15358;SDS011;7779;49.596;11.070;2023-11-21T09:51:21;3.57;;;3.23;;
15358;SDS011;7779;49.596;11.070;2023-11-21T09:53:55;3.20;;;2.80;;
15358;SDS011;7779;49.596;11.070;2023-11-21T09:56:24;2.80;;;2.60;;
15358;SDS011;7779;49.596;11.070;2023-11-21T09:58:52;3.47;;;3.17;;
15358;SDS011;7779;49.596;11.070;2023-11-21T10:01:19;3.87;;;2.83;;
15358;SDS011;7779;49.596;11.070;2023-11-21T10:03:47;3.03;;;2.80;;
15358;SDS011;7779;49.596;11.070;2023-11-21T10:06:13;2.90;;;2.70;;
15358;SDS011;7779;49.596;11.070;2023-11-21T10:08:41;2.93;;;2.63;;
15358;SDS011;7779;49.596;11.070;2023-11-21T10:11:08;3.00;;;2.70;;
15358;SDS011;7779;49.596;11.070;2023-11-21T10:13:36;3.33;;;3.03;;
15358;SDS011;7779;49.596;11.070;2023-11-21T10:16:04;3.53;;;3.20;;
15358;SDS011;7779;49.596;11.070;2023-11-21T10:18:37;3.07;;;2.77;;
15358;SDS011;7779;49.596;11.070;2023-11-21T10:21:05;2.90;;;2.70;;
15358;SDS011;7779;49.596;11.070;2023-11-21T10:23:34;3.57;;;3.00;;
15358;SDS011;7779;49.596;11.070;2023-11-21T10:26:00;3.67;;;3.37;;
15358;SDS011;7779;49.596;11.070;2023-11-21T10:28:26;4.23;;;3.10;;
15358;SDS011;7779;49.596;11.070;2023-11-21T10:30:52;3.63;;;3.20;;
15358;SDS011;7779;49.596;11.070;2023-11-21T10:33:17;3.30;;;3.00;;
15358;SDS011;7779;49.596;11.070;2023-11-21T10:35:53;4.23;;;3.00;;
15358;SDS011;7779;49.596;11.070;2023-11-21T10:38:20;3.30;;;2.93;;
15358;SDS011;7779;49.596;11.070;2023-11-21T10:40:48;3.80;;;3.00;;
15358;SDS011;7779;49.596;11.070;2023-11-21T10:43:14;3.10;;;2.80;;
15358;SDS011;7779;49.596;11.070;2023-11-21T10:45:41;4.20;;;2.80;;
15358;SDS011;7779;49.596;11.070;2023-11-21T10:48:14;2.80;;;2.50;;
15358;SDS011;7779;49.596;11.070;2023-11-21T10:50:41;2.50;;;2.30;;
15358;SDS011;7779;49.596;11.070;2023-11-21T10:53:07;3.30;;;2.70;;
15358;SDS011;7779;49.596;11.070;2023-11-21T10:55:33;2.80;;;2.60;;
15358;SDS011;7779;49.596;11.070;2023-11-21T10:58:03;3.47;;;2.83;;
15358;SDS011;7779;49.596;11.070;2023-11-21T11:00:31;2.60;;;2.40;;
15358;SDS011;7779;49.596;11.070;2023-11-21T11:02:58;4.17;;;2.87;;
15358;SDS011;7779;49.596;11.070;2023-11-21T11:05:28;2.73;;;2.50;;
15358;SDS011;7779;49.596;11.070;2023-11-21T11:07:58;3.60;;;3.00;;
15358;SDS011;7779;49.596;11.070;2023-11-21T11:10:28;3.20;;;3.00;;
15358;SDS011;7779;49.596;11.070;2023-11-21T11:12:55;4.17;;;2.87;;
15358;SDS011;7779;49.596;11.070;2023-11-21T11:15:25;3.17;;;2.63;;
15358;SDS011;7779;49.596;11.070;2023-11-21T11:17:54;3.13;;;2.43;;
15358;SDS011;7779;49.596;11.070;2023-11-21T11:20:22;4.23;;;2.83;;
15358;SDS011;7779;49.596;11.070;2023-11-21T11:25:44;3.57;;;3.20;;
15358;SDS011;7779;49.596;11.070;2023-11-21T11:28:51;3.00;;;2.67;;
15358;SDS011;7779;49.596;11.070;2023-11-21T11:31:37;2.80;;;2.60;;
15358;SDS011;7779;49.596;11.070;2023-11-21T11:34:30;2.80;;;2.50;;
15358;SDS011;7779;49.596;11.070;2023-11-21T11:37:11;4.63;;;2.80;;
15358;SDS011;7779;49.596;11.070;2023-11-21T11:39:38;3.13;;;2.83;;
15358;SDS011;7779;49.596;11.070;2023-11-21T11:42:14;2.80;;;2.60;;
15358;SDS011;7779;49.596;11.070;2023-11-21T11:50:02;3.83;;;2.50;;
15358;SDS011;7779;49.596;11.070;2023-11-21T11:52:46;3.20;;;2.90;;
15358;SDS011;7779;49.596;11.070;2023-11-21T11:55:18;4.63;;;3.67;;
15358;SDS011;7779;49.596;11.070;2023-11-21T11:57:48;13.77;;;7.17;;
15358;SDS011;7779;49.596;11.070;2023-11-21T12:03:08;5.70;;;3.93;;
15358;SDS011;7779;49.596;11.070;2023-11-21T12:05:35;8.80;;;5.77;;
15358;SDS011;7779;49.596;11.070;2023-11-21T12:08:04;12.20;;;6.93;;
15358;SDS011;7779;49.596;11.070;2023-11-21T12:10:32;6.00;;;4.37;;
15358;SDS011;7779;49.596;11.070;2023-11-21T12:13:06;4.90;;;3.80;;
15358;SDS011;7779;49.596;11.070;2023-11-21T12:15:35;7.60;;;4.30;;
15358;SDS011;7779;49.596;11.070;2023-11-21T12:18:02;8.10;;;5.60;;
15358;SDS011;7779;49.596;11.070;2023-11-21T12:20:28;4.43;;;3.70;;
15358;SDS011;7779;49.596;11.070;2023-11-21T12:22:59;11.23;;;6.93;;
15358;SDS011;7779;49.596;11.070;2023-11-21T12:25:25;6.03;;;3.80;;
15358;SDS011;7779;49.596;11.070;2023-11-21T12:27:59;7.67;;;4.43;;
15358;SDS011;7779;49.596;11.070;2023-11-21T12:30:31;4.70;;;3.60;;
15358;SDS011;7779;49.596;11.070;2023-11-21T12:33:01;3.17;;;2.80;;
15358;SDS011;7779;49.596;11.070;2023-11-21T12:35:29;3.83;;;3.07;;
15358;SDS011;7779;49.596;11.070;2023-11-21T12:38:00;5.90;;;3.07;;
15358;SDS011;7779;49.596;11.070;2023-11-21T12:40:28;3.30;;;2.30;;
15358;SDS011;7779;49.596;11.070;2023-11-21T12:42:55;5.60;;;2.47;;
15358;SDS011;7779;49.596;11.070;2023-11-21T12:45:24;3.23;;;2.30;;
15358;SDS011;7779;49.596;11.070;2023-11-21T12:47:54;3.67;;;2.47;;
15358;SDS011;7779;49.596;11.070;2023-11-21T12:50:28;3.93;;;2.43;;
15358;SDS011;7779;49.596;11.070;2023-11-21T12:53:03;2.30;;;2.10;;
15358;SDS011;7779;49.596;11.070;2023-11-21T12:55:34;2.93;;;1.83;;
15358;SDS011;7779;49.596;11.070;2023-11-21T12:58:04;2.87;;;1.97;;
15358;SDS011;7779;49.596;11.070;2023-11-21T13:00:43;3.00;;;2.10;;
15358;SDS011;7779;49.596;11.070;2023-11-21T13:03:12;3.27;;;2.10;;
15358;SDS011;7779;49.596;11.070;2023-11-21T13:05:48;3.33;;;1.93;;
15358;SDS011;7779;49.596;11.070;2023-11-21T13:08:18;3.93;;;1.87;;
15358;SDS011;7779;49.596;11.070;2023-11-21T13:10:51;2.67;;;1.80;;
15358;SDS011;7779;49.596;11.070;2023-11-21T13:13:20;1.90;;;1.70;;
15358;SDS011;7779;49.596;11.070;2023-11-21T13:16:02;2.07;;;1.37;;
15358;SDS011;7779;49.596;11.070;2023-11-21T13:18:33;2.00;;;1.67;;
15358;SDS011;7779;49.596;11.070;2023-11-21T13:21:00;2.30;;;1.50;;
15358;SDS011;7779;49.596;11.070;2023-11-21T13:23:37;2.27;;;1.70;;
15358;SDS011;7779;49.596;11.070;2023-11-21T13:26:03;1.80;;;1.40;;
15358;SDS011;7779;49.596;11.070;2023-11-21T13:28:30;1.83;;;1.60;;
15358;SDS011;7779;49.596;11.070;2023-11-21T13:30:59;1.87;;;1.30;;
15358;SDS011;7779;49.596;11.070;2023-11-21T13:33:34;1.37;;;1.20;;
15358;SDS011;7779;49.596;11.070;2023-11-21T13:36:03;2.57;;;1.77;;
15358;SDS011;7779;49.596;11.070;2023-11-21T13:38:35;2.63;;;1.60;;
15358;SDS011;7779;49.596;11.070;2023-11-21T13:41:02;1.63;;;1.27;;
15358;SDS011;7779;49.596;11.070;2023-11-21T13:43:32;3.43;;;1.30;;
15358;SDS011;7779;49.596;11.070;2023-11-21T13:45:58;1.33;;;1.10;;
15358;SDS011;7779;49.596;11.070;2023-11-21T13:48:33;5.20;;;1.60;;
15358;SDS011;7779;49.596;11.070;2023-11-21T13:51:07;4.63;;;1.30;;
15358;SDS011;7779;49.596;11.070;2023-11-21T13:53:41;2.03;;;1.20;;
15358;SDS011;7779;49.596;11.070;2023-11-21T13:56:07;3.00;;;1.40;;
15358;SDS011;7779;49.596;11.070;2023-11-21T13:58:33;3.67;;;1.30;;
15358;SDS011;7779;49.596;11.070;2023-11-21T14:01:16;1.90;;;1.00;;
15358;SDS011;7779;49.596;11.070;2023-11-21T14:03:58;2.27;;;1.10;;
15358;SDS011;7779;49.596;11.070;2023-11-21T14:06:47;2.70;;;1.10;;
15358;SDS011;7779;49.596;11.070;2023-11-21T14:09:16;1.67;;;1.40;;
15358;SDS011;7779;49.596;11.070;2023-11-21T14:11:50;1.30;;;1.20;;
15358;SDS011;7779;49.596;11.070;2023-11-21T14:14:22;2.63;;;1.20;;
15358;SDS011;7779;49.596;11.070;2023-11-21T14:16:50;2.53;;;1.20;;
15358;SDS011;7779;49.596;11.070;2023-11-21T14:19:17;5.03;;;1.60;;
15358;SDS011;7779;49.596;11.070;2023-11-21T14:21:44;1.90;;;1.40;;
15358;SDS011;7779;49.596;11.070;2023-11-21T14:24:11;1.83;;;1.20;;
15358;SDS011;7779;49.596;11.070;2023-11-21T14:26:41;2.13;;;1.30;;
15358;SDS011;7779;49.596;11.070;2023-11-21T14:29:08;1.97;;;1.30;;
15358;SDS011;7779;49.596;11.070;2023-11-21T14:31:34;2.57;;;1.10;;
15358;SDS011;7779;49.596;11.070;2023-11-21T14:34:00;2.03;;;1.23;;
15358;SDS011;7779;49.596;11.070;2023-11-21T14:36:27;2.73;;;1.30;;
15358;SDS011;7779;49.596;11.070;2023-11-21T14:38:53;2.37;;;1.53;;
15358;SDS011;7779;49.596;11.070;2023-11-21T14:41:19;3.00;;;1.33;;
15358;SDS011;7779;49.596;11.070;2023-11-21T14:43:45;2.43;;;1.33;;
15358;SDS011;7779;49.596;11.070;2023-11-21T14:46:14;2.37;;;1.60;;
15358;SDS011;7779;49.596;11.070;2023-11-21T14:48:42;1.33;;;1.23;;
15358;SDS011;7779;49.596;11.070;2023-11-21T14:51:11;2.03;;;1.50;;
15358;SDS011;7779;49.596;11.070;2023-11-21T14:53:55;1.87;;;1.47;;
15358;SDS011;7779;49.596;11.070;2023-11-21T14:56:26;2.07;;;1.50;;
15358;SDS011;7779;49.596;11.070;2023-11-21T14:58:56;2.93;;;1.60;;
15358;SDS011;7779;49.596;11.070;2023-11-21T15:01:30;2.70;;;1.47;;
15358;SDS011;7779;49.596;11.070;2023-11-21T15:04:18;3.10;;;1.70;;
15358;SDS011;7779;49.596;11.070;2023-11-21T15:07:04;4.47;;;2.00;;